City of Colorado Springs Municipal Airport
KCOS : now visible

Airfield :











YOU CAN JOIN US ON...

 
LOGIN :

Register | Disclaimer

   EN    FR    IT 

 









Legend :    VFR   Marginal VFR   IFR   Intensive IFR   Very Intensive IFR
Visi :
Ceiling :
>= 8 km
>= 3000ft
5 to 8 km
1000 to 3000 ft
1500m to 5 km
500 to 1000 ft
800 to 1500m
200 to 500 ft
< 800m
< 200 ft
Symbols :   Thunderstorms  Fog  Heavy snow  Heavy precipitations  Wind > 20 kt






- Airport Elevation : 6187 ft
- IATA code : COS


KCOS - City of Colorado Springs Municipal

CURRENT METAR :
  • 281054Z 01005KT 10SM CLR M02/M11 A2968 RMK AO2 SLP063 T10221111 $

EXPIRED METARs :
  • 280954Z 36004KT 10SM CLR 01/M09 A2969 RMK AO2 SLP057 T00061094 $
  • 280854Z 34006KT 10SM CLR M01/M08 A2970 RMK AO2 SLP063 T10111083 55009 $

TAF KCOS
Valid from the 28 at 06:00 until the 29 at 06:00 UTC


280536Z 2806/2906 02007KT P6SM SCT200
FM281600 16009KT P6SM BKN200
FM281900 20015G25KT P6SM BKN200
FM282300 17010KT P6SM SCT100 BKN200
FM290300 04009KT P6SM SCT100 BKN200
KZDV FIR / North America



MET'MAP, your aeronautical weather chart ! - Copyright ORBIFLY December 2007 - Disclaimer

ORBIFLY MET'MAP TEAM :

Programming & Development : Alexandra Zaïnal
Original concept : Baudouin d'Aumeries
Technical & hardware support : Manuel Goepfert
Assistance : Marc-Olivier Méhu




SOURCES & CREDITS :

   NOAA       Earth
Advisory